createdAt,value
2018-10-01T00:01:14.451Z,2.50
2018-10-01T00:06:16.643Z,2.93
2018-10-01T00:11:19.360Z,2.40
2018-10-01T00:16:21.527Z,2.37
2018-10-01T00:22:26.904Z,2.50
2018-10-01T00:27:29.062Z,1.77
2018-10-01T00:32:31.180Z,2.40
2018-10-01T00:37:33.351Z,1.90
2018-10-01T00:42:35.881Z,1.83
2018-10-01T00:47:38.047Z,1.77
2018-10-01T00:52:40.516Z,1.90
2018-10-01T00:57:42.722Z,1.80
2018-10-01T01:02:45.227Z,1.73
2018-10-01T01:07:47.384Z,2.20
2018-10-01T01:12:49.520Z,1.50
2018-10-01T01:17:51.721Z,2.00
2018-10-01T01:22:53.869Z,2.23
2018-10-01T01:27:56.058Z,2.40
2018-10-01T01:32:58.196Z,2.43
2018-10-01T01:38:00.751Z,2.93
2018-10-01T01:43:02.978Z,2.47
2018-10-01T01:48:05.286Z,2.53
2018-10-01T01:53:08.946Z,4.00
2018-10-01T01:58:11.135Z,3.03
2018-10-01T02:03:13.714Z,3.10
2018-10-01T02:08:15.879Z,2.50
2018-10-01T02:13:18.030Z,2.57
2018-10-01T02:18:20.169Z,2.37
2018-10-01T02:23:22.331Z,2.13
2018-10-01T02:28:24.553Z,1.70
2018-10-01T02:33:26.672Z,2.30
2018-10-01T02:38:28.773Z,2.50
2018-10-01T02:43:30.887Z,2.10
2018-10-01T02:48:33.042Z,1.93
2018-10-01T02:53:40.856Z,1.80
2018-10-01T02:58:43.059Z,1.80
2018-10-01T03:03:45.124Z,1.90
2018-10-01T03:08:47.489Z,1.80
2018-10-01T03:13:49.659Z,1.70
2018-10-01T03:18:51.798Z,1.90
2018-10-01T03:23:53.964Z,1.70
2018-10-01T03:28:56.080Z,2.07
2018-10-01T03:33:58.200Z,2.50
2018-10-01T03:39:00.298Z,2.60
2018-10-01T03:44:02.461Z,4.00
2018-10-01T03:49:04.652Z,5.63
2018-10-01T03:54:06.772Z,6.23
2018-10-01T03:59:08.927Z,8.37
2018-10-01T04:04:11.060Z,9.30
2018-10-01T04:09:13.144Z,10.43
2018-10-01T04:14:15.203Z,11.70
2018-10-01T04:19:17.335Z,10.70
2018-10-01T04:24:19.437Z,11.17
2018-10-01T04:29:21.605Z,11.23
2018-10-01T04:34:23.766Z,13.20
2018-10-01T04:39:25.882Z,11.97
2018-10-01T04:44:28.028Z,12.13
2018-10-01T04:49:30.165Z,11.10
2018-10-01T04:54:32.335Z,11.77
2018-10-01T04:59:34.445Z,11.53
2018-10-01T05:04:36.546Z,10.90
2018-10-01T05:09:38.656Z,11.23
2018-10-01T05:14:40.845Z,11.00
2018-10-01T05:19:42.885Z,11.50
2018-10-01T05:24:45.019Z,11.40
2018-10-01T05:29:47.129Z,11.10
2018-10-01T05:34:49.233Z,10.90
2018-10-01T05:39:51.363Z,11.67
2018-10-01T05:44:53.470Z,10.27
2018-10-01T05:49:55.659Z,9.63
2018-10-01T05:54:57.847Z,9.67
2018-10-01T05:59:59.944Z,8.90
2018-10-01T06:05:02.103Z,8.90
2018-10-01T06:10:04.241Z,8.77
2018-10-01T06:15:06.410Z,8.97
2018-10-01T06:20:08.528Z,8.80
2018-10-01T06:25:10.680Z,7.77
2018-10-01T06:30:12.801Z,8.15
2018-10-01T06:35:14.955Z,7.37
2018-10-01T06:40:17.055Z,7.43
2018-10-01T06:45:19.198Z,8.47
2018-10-01T06:50:21.400Z,7.90
2018-10-01T06:55:23.625Z,6.30
2018-10-01T07:00:25.763Z,7.10
2018-10-01T07:05:27.922Z,6.30
2018-10-01T07:10:30.074Z,5.50
2018-10-01T07:15:32.226Z,5.93
2018-10-01T07:20:34.410Z,5.40
2018-10-01T07:25:36.587Z,5.07
2018-10-01T07:30:38.764Z,5.30
2018-10-01T07:35:40.870Z,5.43
2018-10-01T07:40:43.004Z,4.40
2018-10-01T07:45:45.230Z,4.60
2018-10-01T07:50:47.453Z,3.37
2018-10-01T07:55:49.578Z,3.07
2018-10-01T08:00:51.725Z,2.00
2018-10-01T08:05:53.862Z,1.80
2018-10-01T08:10:56.026Z,1.70
2018-10-01T08:15:58.218Z,1.60
2018-10-01T08:21:00.293Z,1.60
2018-10-01T08:26:02.546Z,1.80
2018-10-01T08:31:04.655Z,1.87
2018-10-01T08:36:06.941Z,1.40
2018-10-01T08:41:09.127Z,1.60
2018-10-01T08:46:11.232Z,1.73
2018-10-01T08:51:18.282Z,1.60
2018-10-01T08:56:21.523Z,1.20
2018-10-01T09:01:23.693Z,2.07
2018-10-01T09:06:25.855Z,1.07
2018-10-01T09:11:28.040Z,1.60
2018-10-01T09:16:30.158Z,1.03
2018-10-01T09:21:32.991Z,1.30
2018-10-01T09:26:35.154Z,1.50
2018-10-01T09:31:37.291Z,1.10
2018-10-01T09:36:39.520Z,1.40
2018-10-01T09:41:41.705Z,1.50
2018-10-01T09:46:43.865Z,1.30
2018-10-01T09:51:46.081Z,1.40
2018-10-01T09:56:48.260Z,1.30
2018-10-01T10:01:50.419Z,1.17
2018-10-01T10:06:52.586Z,1.50
2018-10-01T10:11:54.746Z,1.10
2018-10-01T10:16:56.921Z,0.97
2018-10-01T10:21:59.063Z,0.80
2018-10-01T10:27:01.205Z,0.83
2018-10-01T10:32:03.393Z,0.63
2018-10-01T10:37:05.758Z,0.90
2018-10-01T10:42:07.923Z,0.97
2018-10-01T10:47:10.035Z,1.03
2018-10-01T10:52:12.264Z,0.60
2018-10-01T10:57:14.422Z,0.80
2018-10-01T11:02:16.620Z,0.90
2018-10-01T11:07:18.784Z,0.80
2018-10-01T11:12:21.002Z,0.80
2018-10-01T11:17:23.189Z,0.90
2018-10-01T11:22:25.403Z,1.40
2018-10-01T11:27:27.593Z,0.73
2018-10-01T11:32:29.755Z,0.90
2018-10-01T11:37:31.937Z,1.10
2018-10-01T11:42:34.177Z,0.60
2018-10-01T11:47:36.377Z,0.60
2018-10-01T11:52:38.580Z,0.60
2018-10-01T11:57:41.081Z,0.60
2018-10-01T12:02:43.193Z,0.80
2018-10-01T12:07:45.367Z,0.67
2018-10-01T12:12:47.494Z,0.78
2018-10-01T12:17:49.644Z,0.70
2018-10-01T12:22:51.777Z,1.00
2018-10-01T12:27:53.939Z,0.90
2018-10-01T12:32:56.140Z,1.10
2018-10-01T12:37:58.224Z,0.90
2018-10-01T12:43:00.899Z,1.10
2018-10-01T12:48:03.066Z,0.70
2018-10-01T12:53:05.248Z,1.10
2018-10-01T12:58:07.441Z,1.23
2018-10-01T13:03:09.633Z,0.87
2018-10-01T13:08:11.795Z,0.70
2018-10-01T13:13:13.925Z,0.80
2018-10-01T13:18:16.165Z,1.40
2018-10-01T13:23:18.270Z,1.00
2018-10-01T13:28:21.276Z,1.13
2018-10-01T13:33:23.451Z,0.93
2018-10-01T13:38:25.579Z,1.20
2018-10-01T13:43:27.738Z,1.20
2018-10-01T13:48:29.969Z,1.03
2018-10-01T13:53:32.173Z,1.30
2018-10-01T13:58:34.521Z,1.93
2018-10-01T14:03:36.747Z,1.10
2018-10-01T14:08:38.904Z,1.53
2018-10-01T14:13:41.115Z,1.77
2018-10-01T14:18:43.208Z,1.27
2018-10-01T14:23:45.371Z,1.50
2018-10-01T14:28:47.716Z,1.07
2018-10-01T14:33:49.942Z,1.43
2018-10-01T14:38:52.542Z,1.30
2018-10-01T14:43:54.721Z,1.40
2018-10-01T14:48:57.009Z,1.10
2018-10-01T14:53:59.356Z,1.67
2018-10-01T14:59:01.504Z,0.90
2018-10-01T15:04:03.680Z,1.30
2018-10-01T15:09:07.896Z,1.40
2018-10-01T15:14:10.533Z,0.90
2018-10-01T15:19:12.737Z,1.27
2018-10-01T15:24:14.945Z,0.87
2018-10-01T15:29:17.153Z,0.70
2018-10-01T15:34:19.299Z,0.80
2018-10-01T15:39:21.443Z,0.80
2018-10-01T15:44:23.708Z,0.60
2018-10-01T15:49:25.959Z,0.67
2018-10-01T15:54:28.157Z,0.50
2018-10-01T15:59:30.352Z,0.80
2018-10-01T16:04:32.511Z,0.97
2018-10-01T16:09:34.667Z,0.87
2018-10-01T16:14:36.843Z,0.73
2018-10-01T16:19:38.989Z,0.83
2018-10-01T16:24:41.179Z,0.60
2018-10-01T16:29:43.368Z,1.27
2018-10-01T16:34:45.544Z,0.60
2018-10-01T16:39:47.714Z,1.03
2018-10-01T16:44:50.089Z,0.87
2018-10-01T16:49:52.308Z,0.77
2018-10-01T16:54:54.503Z,0.60
2018-10-01T16:59:56.639Z,0.77
2018-10-01T17:04:58.840Z,0.93
2018-10-01T17:10:01.104Z,1.20
2018-10-01T17:15:03.302Z,0.67
2018-10-01T17:20:05.575Z,1.10
2018-10-01T17:25:07.782Z,2.67
2018-10-01T17:30:09.974Z,2.83
2018-10-01T17:35:12.167Z,2.37
2018-10-01T17:40:14.379Z,1.47
2018-10-01T17:45:16.577Z,1.20
2018-10-01T17:50:18.851Z,1.20
2018-10-01T17:55:21.284Z,1.33
2018-10-01T18:00:23.547Z,1.80
2018-10-01T18:05:25.712Z,1.60
2018-10-01T18:10:27.893Z,1.63
2018-10-01T18:15:30.106Z,1.23
2018-10-01T18:20:32.323Z,1.00
2018-10-01T18:25:34.535Z,1.27
2018-10-01T18:30:36.788Z,1.30
2018-10-01T18:35:39.040Z,1.10
2018-10-01T18:40:42.387Z,1.40
2018-10-01T18:45:44.669Z,1.30
2018-10-01T18:50:47.096Z,1.57
2018-10-01T18:55:49.443Z,1.60
2018-10-01T19:00:51.731Z,1.60
2018-10-01T19:05:54.079Z,1.30
2018-10-01T19:10:56.369Z,2.00
2018-10-01T19:15:58.777Z,2.23
2018-10-01T19:21:01.278Z,2.23
2018-10-01T19:26:03.547Z,2.00
2018-10-01T19:31:05.792Z,1.43
2018-10-01T19:36:08.155Z,1.97
2018-10-01T19:41:10.535Z,2.33
2018-10-01T19:46:13.264Z,2.20
2018-10-01T19:51:15.670Z,1.77
2018-10-01T19:56:18.047Z,2.00
2018-10-01T20:01:20.326Z,1.83
2018-10-01T20:06:22.542Z,1.70
2018-10-01T20:11:24.839Z,2.07
2018-10-01T20:16:26.971Z,2.33
2018-10-01T20:21:29.258Z,2.20
2018-10-01T20:26:31.622Z,1.97
2018-10-01T20:31:33.760Z,1.80
2018-10-01T20:36:36.190Z,1.77
2018-10-01T20:41:38.376Z,1.77
2018-10-01T20:46:40.549Z,1.63
2018-10-01T20:51:42.747Z,1.63
2018-10-01T20:56:44.976Z,1.50
2018-10-01T21:01:47.189Z,1.90
2018-10-01T21:06:49.351Z,1.73
2018-10-01T21:11:51.565Z,1.43
2018-10-01T21:16:53.746Z,2.27
2018-10-01T21:21:55.928Z,1.30
2018-10-01T21:26:58.495Z,2.50
2018-10-01T21:32:00.694Z,2.83
2018-10-01T21:37:02.957Z,1.83
2018-10-01T21:42:05.317Z,1.90
2018-10-01T21:47:09.392Z,2.10
2018-10-01T21:52:11.592Z,1.57
2018-10-01T21:57:13.971Z,2.10
2018-10-01T22:02:16.127Z,1.73
2018-10-01T22:07:18.640Z,1.53
2018-10-01T22:12:20.824Z,1.60
2018-10-01T22:17:23.013Z,1.80
2018-10-01T22:22:25.169Z,1.43
2018-10-01T22:27:27.307Z,1.90
2018-10-01T22:32:29.451Z,2.40
2018-10-01T22:37:31.598Z,2.03
2018-10-01T22:42:33.762Z,1.70
2018-10-01T22:47:35.992Z,2.03
2018-10-01T22:52:38.170Z,1.90
2018-10-01T22:57:40.570Z,2.20
2018-10-01T23:02:42.733Z,1.43
2018-10-01T23:07:44.867Z,1.50
2018-10-01T23:12:47.000Z,1.43
2018-10-01T23:17:49.123Z,1.30
2018-10-01T23:22:51.242Z,1.90
2018-10-01T23:27:53.383Z,1.40
2018-10-01T23:32:55.457Z,1.67
2018-10-01T23:37:57.631Z,1.57
2018-10-01T23:42:59.793Z,1.97
2018-10-01T23:48:01.902Z,1.60
2018-10-01T23:53:04.427Z,1.90
2018-10-01T23:58:06.566Z,1.67
